Time;durP1;ratioP1;P1;durP2;ratioP2;P2;SDS_P1;SDS_P2;PMS_P1;PMS_P2;Temp;Humidity;BMP_temperature;BMP_pressure;BME280_temperature;BME280_humidity;BME280_pressure;Samples;Min_cycle;Max_cycle;Signal;HPM_P1;HPM_P2
2023/03/04 00:03:30;;;;;;;32.63;13.83;;;;;;;1.73;100.00;100617.84;5204374;55;1140996;-69
2023/03/04 00:08:37;;;;;;;31.97;12.03;;;;;;;1.74;100.00;100611.72;5204610;55;1140907;-70
2023/03/04 00:13:43;;;;;;;38.17;13.83;;;;;;;1.74;100.00;100604.75;5224868;55;1140769;-66
2023/03/04 00:18:49;;;;;;;31.53;14.57;;;;;;;1.73;100.00;100599.14;5165143;55;1140732;-68
2023/03/04 00:23:55;;;;;;;25.97;11.57;;;;;;;1.75;100.00;100600.38;5032801;57;1140781;-69
2023/03/04 00:29:01;;;;;;;32.43;13.23;;;;;;;1.74;100.00;100587.80;5122389;56;1140880;-65
2023/03/04 00:34:07;;;;;;;29.90;14.10;;;;;;;1.76;100.00;100584.69;5158057;55;1140792;-67
2023/03/04 00:39:13;;;;;;;22.67;9.50;;;;;;;1.77;100.00;100572.50;5069685;56;1141053;-69
2023/03/04 00:44:19;;;;;;;25.80;12.00;;;;;;;1.77;100.00;100563.38;5053265;56;1138692;-70
2023/03/04 00:49:25;;;;;;;21.43;11.13;;;;;;;1.79;100.00;100552.88;5064752;56;1141016;-67
2023/03/04 00:54:31;;;;;;;27.27;13.43;;;;;;;1.81;100.00;100540.63;5099106;56;1140760;-65
2023/03/04 00:59:37;;;;;;;26.87;12.83;;;;;;;1.83;100.00;100533.60;5099135;56;1140972;-68
2023/03/04 01:04:43;;;;;;;16.07;9.67;;;;;;;1.83;100.00;100522.72;5119155;56;1140984;-69
2023/03/04 01:09:49;;;;;;;26.93;12.33;;;;;;;1.83;100.00;100508.37;5099142;56;1138709;-70
2023/03/04 01:14:55;;;;;;;25.80;11.53;;;;;;;1.83;100.00;100497.94;5099039;56;1140914;-69
2023/03/04 01:20:01;;;;;;;18.97;9.80;;;;;;;1.83;100.00;100488.81;5160216;55;1140946;-68
2023/03/04 01:25:08;;;;;;;27.63;13.83;;;;;;;1.85;100.00;100465.25;5185984;55;1138916;-65
2023/03/04 01:30:14;;;;;;;17.67;8.73;;;;;;;1.83;100.00;100445.80;5138848;55;1140765;-64
2023/03/04 01:35:20;;;;;;;23.67;12.63;;;;;;;1.79;100.00;100429.03;5170554;55;1138804;-67
2023/03/04 01:40:27;;;;;;;31.07;13.37;;;;;;;1.78;100.00;100419.06;5185603;55;1140892;-64
2023/03/04 01:45:36;;;;;;;26.97;12.50;;;;;;;1.79;100.00;100408.17;5185012;55;1140933;-70
2023/03/04 01:50:42;;;;;;;24.70;11.93;;;;;;;1.78;100.00;100403.88;5193268;55;1140853;-70
2023/03/04 01:55:49;;;;;;;22.27;11.40;;;;;;;1.76;100.00;100402.17;5228241;55;1140773;-70
2023/03/04 02:00:54;;;;;;;22.30;10.30;;;;;;;1.76;100.00;100381.77;5206811;55;1140826;-69
2023/03/04 02:06:01;;;;;;;23.15;9.88;;;;;;;1.76;100.00;100383.92;5207875;55;1140801;-70
2023/03/04 02:11:07;;;;;;;26.07;9.57;;;;;;;1.78;100.00;100391.69;5044235;57;1138702;-64
2023/03/04 02:16:12;;;;;;;16.53;8.70;;;;;;;1.78;100.00;100389.08;5208020;55;1138809;-69
2023/03/04 02:21:29;;;;;;;18.20;8.45;;;;;;;1.79;100.00;100388.63;5006048;57;1138852;-66
2023/03/04 02:26:35;;;;;;;20.23;6.00;;;;;;;1.81;100.00;100385.49;5120597;55;1138738;-68
2023/03/04 02:31:48;;;;;;;19.70;8.73;;;;;;;1.82;100.00;100384.58;5218513;55;1138716;-69
2023/03/04 02:36:56;;;;;;;23.85;8.45;;;;;;;1.83;100.00;100388.88;5081398;55;1138798;-67
2023/03/04 02:42:04;;;;;;;16.10;8.70;;;;;;;1.86;100.00;100384.36;5045893;55;1138755;-68
2023/03/04 02:47:16;;;;;;;11.03;6.97;;;;;;;1.87;100.00;100386.05;5066115;55;1138871;-67
2023/03/04 02:52:25;;;;;;;15.63;8.07;;;;;;;1.87;100.00;100387.81;5039583;56;1138879;-71
2023/03/04 02:57:31;;;;;;;16.23;8.90;;;;;;;1.89;100.00;100391.20;5054397;56;1138894;-66
2023/03/04 03:02:37;;;;;;;18.02;7.15;;;;;;;1.92;100.00;100391.92;5044617;56;1138883;-66
2023/03/04 03:07:43;;;;;;;22.30;8.73;;;;;;;1.91;100.00;100386.77;5064742;56;1139647;-69
2023/03/04 03:12:49;;;;;;;26.00;8.73;;;;;;;1.90;100.00;100388.53;5089982;55;1138932;-69
2023/03/04 03:17:56;;;;;;;20.43;9.90;;;;;;;1.91;100.00;100392.83;5111195;55;1138840;-70
2023/03/04 03:23:02;;;;;;;15.07;8.13;;;;;;;1.92;100.00;100383.25;5140767;55;1138981;-66
2023/03/04 03:28:08;;;;;;;19.07;8.10;;;;;;;1.90;100.00;100376.80;5070240;56;1138841;-71
2023/03/04 03:33:16;;;;;;;22.60;10.10;;;;;;;1.89;100.00;100377.70;5117437;55;1138910;-65
2023/03/04 03:38:23;;;;;;;23.27;8.17;;;;;;;1.90;100.00;100388.98;5095066;55;1140843;-67
2023/03/04 03:43:29;;;;;;;21.23;9.58;;;;;;;1.89;100.00;100371.64;5063777;55;1138850;-68
2023/03/04 03:48:34;;;;;;;22.80;8.53;;;;;;;1.91;100.00;100371.12;5071368;55;1138745;-67
2023/03/04 03:53:40;;;;;;;19.00;8.67;;;;;;;1.90;100.00;100380.70;5075944;56;1138979;-71
2023/03/04 03:58:47;;;;;;;19.50;8.65;;;;;;;1.90;100.00;100367.67;5051237;56;1138775;-65
2023/03/04 04:03:53;;;;;;;20.33;8.00;;;;;;;1.91;100.00;100355.02;5128853;55;1138894;-66
2023/03/04 04:08:59;;;;;;;16.42;8.28;;;;;;;1.90;100.00;100352.02;5189451;55;1138947;-64
2023/03/04 04:14:05;;;;;;;13.60;7.77;;;;;;;1.92;100.00;100346.74;5189037;55;1138710;-70
2023/03/04 04:19:19;;;;;;;24.03;9.77;;;;;;;1.92;100.00;100348.89;5201172;55;1138687;-68
2023/03/04 04:24:25;;;;;;;12.85;5.80;;;;;;;1.91;100.00;100347.20;5209878;55;1139866;-67
2023/03/04 04:29:31;;;;;;;20.50;7.03;;;;;;;1.91;100.00;100340.67;5193102;55;1138814;-66
2023/03/04 04:34:37;;;;;;;18.57;7.77;;;;;;;1.91;100.00;100327.64;5139557;55;1138816;-66
2023/03/04 04:39:43;;;;;;;15.58;6.60;;;;;;;1.92;100.00;100330.64;5129334;55;1138819;-66
2023/03/04 04:44:49;;;;;;;26.02;6.90;;;;;;;1.93;100.00;100331.48;5176718;55;1142479;-70
2023/03/04 04:49:57;;;;;;;14.73;5.67;;;;;;;1.95;100.00;100329.66;5211550;55;1138697;-72
2023/03/04 04:55:03;;;;;;;12.50;6.37;;;;;;;1.96;100.00;100323.07;5199079;55;1138793;-68
2023/03/04 05:00:11;;;;;;;27.40;7.57;;;;;;;1.96;100.00;100319.62;5195346;55;1138978;-67
2023/03/04 05:05:17;;;;;;;19.23;6.27;;;;;;;1.96;100.00;100311.80;5103891;55;1138778;-67
2023/03/04 05:10:24;;;;;;;16.73;5.97;;;;;;;1.95;100.00;100299.21;5101073;56;1138803;-65
2023/03/04 05:15:29;;;;;;;23.60;7.97;;;;;;;1.95;100.00;100304.42;4983903;56;1138787;-69
2023/03/04 05:20:35;;;;;;;17.87;5.57;;;;;;;1.97;100.00;100306.51;5117602;56;1138882;-66
2023/03/04 05:25:42;;;;;;;16.53;4.97;;;;;;;1.96;100.00;100303.52;5123053;56;1138838;-66
2023/03/04 05:30:48;;;;;;;17.17;6.60;;;;;;;1.98;100.00;100301.69;5051053;56;1139115;-66
2023/03/04 05:35:54;;;;;;;16.07;6.63;;;;;;;2.00;100.00;100301.59;5054372;55;1138719;-71
2023/03/04 05:41:04;;;;;;;21.53;7.83;;;;;;;1.99;100.00;100301.20;4906506;58;1138786;-68
2023/03/04 05:46:16;;;;;;;20.27;6.30;;;;;;;1.98;100.00;100298.23;5137597;55;1138894;-67
2023/03/04 05:51:23;;;;;;;17.87;6.57;;;;;;;2.01;100.00;100295.00;5132500;55;1138875;-67
2023/03/04 05:56:30;;;;;;;19.82;7.45;;;;;;;2.00;100.00;100292.45;5155124;55;1138955;-68
2023/03/04 06:01:37;;;;;;;31.95;8.43;;;;;;;2.00;100.00;100293.77;5205407;55;1138867;-66
2023/03/04 06:06:45;;;;;;;24.27;9.70;;;;;;;1.98;100.00;100277.37;5137962;55;1138834;-67
2023/03/04 06:11:50;;;;;;;30.37;9.43;;;;;;;1.99;100.00;100284.24;5189915;55;1138959;-70
2023/03/04 06:16:57;;;;;;;23.43;8.93;;;;;;;2.00;100.00;100284.17;5205993;55;1138767;-70
2023/03/04 06:22:02;;;;;;;25.37;7.15;;;;;;;1.98;100.00;100276.91;5127811;55;1138854;-69
2023/03/04 06:27:09;;;;;;;21.02;7.45;;;;;;;1.98;100.00;100275.61;5131031;55;1138689;-70
2023/03/04 06:32:16;;;;;;;23.67;6.50;;;;;;;1.99;100.00;100284.24;5137544;56;1138838;-67
2023/03/04 06:37:23;;;;;;;22.95;6.03;;;;;;;1.99;100.00;100280.33;5052729;56;1139209;-71
2023/03/04 06:42:29;;;;;;;28.07;8.73;;;;;;;2.00;100.00;100276.35;5041988;56;1139306;-66
2023/03/04 06:47:35;;;;;;;25.83;6.97;;;;;;;2.02;100.00;100284.95;5044193;56;1139238;-66
2023/03/04 06:52:41;;;;;;;42.27;7.60;;;;;;;2.02;100.00;100286.26;5092368;56;1138770;-64
2023/03/04 06:57:47;;;;;;;30.83;7.80;;;;;;;2.04;100.00;100289.64;5059937;56;1138917;-66
2023/03/04 07:02:52;;;;;;;44.13;12.73;;;;;;;2.05;100.00;100278.30;5092123;56;1138760;-65
2023/03/04 07:07:58;;;;;;;20.90;7.17;;;;;;;2.07;100.00;100282.98;5110793;56;1140933;-66
2023/03/04 07:13:04;;;;;;;39.53;7.83;;;;;;;2.10;100.00;100282.85;5042743;56;1138927;-67
2023/03/04 07:18:10;;;;;;;11.77;6.17;;;;;;;2.12;100.00;100284.09;5053305;56;1138712;-65
2023/03/04 07:23:15;;;;;;;22.93;6.87;;;;;;;2.15;100.00;100280.47;5154406;55;1138638;-67
2023/03/04 07:28:22;;;;;;;21.48;7.35;;;;;;;2.17;100.00;100282.55;5116920;56;1138732;-67
2023/03/04 07:33:28;;;;;;;22.73;8.03;;;;;;;2.20;100.00;100285.87;5049271;56;1148745;-67
2023/03/04 07:38:34;;;;;;;23.87;7.42;;;;;;;2.22;100.00;100285.34;5062265;56;1229724;-71
2023/03/04 07:43:40;;;;;;;23.07;8.07;;;;;;;2.25;100.00;100278.68;5065232;56;1138889;-67
2023/03/04 07:48:46;;;;;;;11.27;4.70;;;;;;;2.27;100.00;100276.84;5085843;55;1138941;-69
2023/03/04 07:53:57;;;;;;;29.70;8.67;;;;;;;2.30;100.00;100281.05;5099268;55;1138796;-66
2023/03/04 07:59:03;;;;;;;12.27;6.97;;;;;;;2.33;100.00;100279.15;5125464;56;1138735;-64
2023/03/04 08:04:09;;;;;;;13.70;5.80;;;;;;;2.39;100.00;100280.63;5069485;55;1138913;-69
2023/03/04 08:09:15;;;;;;;26.43;6.70;;;;;;;2.43;100.00;100278.27;5055881;56;1138882;-66
2023/03/04 08:14:21;;;;;;;18.80;6.17;;;;;;;2.46;100.00;100276.79;5081017;56;1138783;-69
2023/03/04 08:19:27;;;;;;;18.03;6.43;;;;;;;2.52;100.00;100272.59;5095153;56;1138742;-70
2023/03/04 08:24:33;;;;;;;23.43;6.90;;;;;;;2.59;100.00;100266.63;5083050;56;1138938;-67
2023/03/04 08:29:39;;;;;;;21.12;6.00;;;;;;;2.66;100.00;100255.80;5158466;55;1138781;-67
2023/03/04 08:34:45;;;;;;;20.67;6.60;;;;;;;2.74;100.00;100261.95;5176406;55;1138792;-71
2023/03/04 08:39:51;;;;;;;11.90;6.50;;;;;;;2.78;100.00;100261.70;5129785;55;1139186;-69
2023/03/04 08:44:56;;;;;;;26.87;6.30;;;;;;;2.81;100.00;100235.45;5069528;56;1138794;-68
2023/03/04 08:50:02;;;;;;;13.10;4.83;;;;;;;2.81;100.00;100235.45;5000755;56;1138821;-66
2023/03/04 08:55:08;;;;;;;25.17;6.40;;;;;;;2.91;100.00;100241.05;4928874;57;1139003;-65
2023/03/04 09:00:15;;;;;;;11.80;4.63;;;;;;;2.96;100.00;100221.23;5048186;55;1138975;-68
2023/03/04 09:05:21;;;;;;;20.80;4.97;;;;;;;3.00;100.00;100211.02;5113275;55;1138811;-66
2023/03/04 09:10:27;;;;;;;20.63;5.50;;;;;;;3.10;100.00;100222.66;5119346;56;1138820;-67
2023/03/04 09:15:37;;;;;;;21.17;7.00;;;;;;;3.17;100.00;100227.52;5113182;55;1138791;-65
2023/03/04 09:20:43;;;;;;;12.82;5.50;;;;;;;3.20;100.00;100218.67;5085858;56;1138912;-67
2023/03/04 09:25:51;;;;;;;12.60;5.07;;;;;;;3.18;100.00;100229.66;5137578;56;1139003;-65
2023/03/04 09:30:57;;;;;;;21.60;6.60;;;;;;;3.17;100.00;100207.91;5116517;55;1138949;-65
2023/03/04 09:36:03;;;;;;;17.00;6.97;;;;;;;3.20;100.00;100218.67;5068284;55;1138921;-75
2023/03/04 09:41:22;;;;;;;11.17;5.70;;;;;;;3.22;100.00;100214.19;5065520;55;1138996;-74
2023/03/04 09:46:40;;;;;;;17.60;5.50;;;;;;;3.24;100.00;100224.56;5122027;55;1138765;-79
2023/03/04 09:51:56;;;;;;;11.37;4.70;;;;;;;3.26;100.00;100219.64;5061301;56;1138810;-76
2023/03/04 09:57:21;;;;;;;17.17;4.97;;;;;;;3.31;100.00;100212.88;5126296;56;1139726;-80
2023/03/04 10:02:40;;;;;;;14.37;5.43;;;;;;;3.37;100.00;100215.16;5095234;56;1138935;-79
2023/03/04 10:07:51;;;;;;;11.83;4.63;;;;;;;3.38;100.00;100209.84;5050832;56;1138866;-73
2023/03/04 10:12:59;;;;;;;10.00;5.13;;;;;;;3.35;100.00;100211.80;5092000;56;1138822;-81
2023/03/04 10:18:22;;;;;;;6.97;4.17;;;;;;;3.33;100.00;100206.65;5133941;55;1138889;-80
2023/03/04 10:23:31;;;;;;;11.87;4.30;;;;;;;3.34;100.00;100208.34;5069788;55;1136885;-84
2023/03/04 10:28:38;;;;;;;14.43;5.47;;;;;;;3.43;100.00;100210.92;5074662;55;1139611;-75
2023/03/04 10:33:44;;;;;;;14.87;4.20;;;;;;;3.49;100.00;100207.98;5050436;56;1139336;-73
2023/03/04 10:38:58;;;;;;;8.83;3.60;;;;;;;3.55;100.00;100202.41;5106436;56;1139107;-80
2023/03/04 10:44:12;;;;;;;3.50;2.63;;;;;;;3.62;100.00;100197.25;5119046;55;1136593;-75
2023/03/04 10:49:20;;;;;;;12.67;3.87;;;;;;;3.67;100.00;100196.98;5180223;55;1136801;-81
2023/03/04 10:54:33;;;;;;;6.63;4.00;;;;;;;3.61;100.00;100190.79;4999083;57;1138995;-76
2023/03/04 10:59:57;;;;;;;8.63;3.70;;;;;;;3.59;100.00;100188.26;5037690;56;1146529;-74
2023/03/04 11:05:22;;;;;;;6.62;3.92;;;;;;;3.60;100.00;100185.17;5118868;55;1136735;-79
2023/03/04 11:10:37;;;;;;;5.53;3.13;;;;;;;3.70;100.00;100182.43;5179347;55;1136737;-79
2023/03/04 11:15:59;;;;;;;6.13;3.47;;;;;;;3.85;100.00;100173.74;5072352;55;1136792;-78
2023/03/04 11:21:08;;;;;;;13.50;4.08;;;;;;;3.98;100.00;100156.89;5094689;56;1136721;-82
2023/03/04 11:26:19;;;;;;;5.63;2.70;;;;;;;4.09;100.00;100161.92;5086116;55;1139839;-81
2023/03/04 11:31:40;;;;;;;10.43;3.83;;;;;;;4.17;100.00;100160.16;5167522;55;1136707;-81
2023/03/04 11:37:10;;;;;;;5.97;2.63;;;;;;;4.23;100.00;100163.29;5198555;55;1139015;-76
2023/03/04 11:42:24;;;;;;;13.80;3.00;;;;;;;4.30;100.00;100170.31;5164446;55;1136848;-79
2023/03/04 11:47:46;;;;;;;5.50;2.33;;;;;;;4.41;100.00;100165.32;5132917;55;1139588;-78
2023/03/04 11:53:11;;;;;;;6.97;3.10;;;;;;;4.48;100.00;100155.31;5171555;55;1136856;-83
2023/03/04 11:59:00;;;;;;;11.43;4.77;;;;;;;4.55;100.00;100171.91;5143011;55;1136704;-76
2023/03/04 12:04:25;;;;;;;17.13;6.30;;;;;;;4.61;100.00;100175.92;5193473;55;1138896;-79
2023/03/04 12:10:07;;;;;;;10.50;3.40;;;;;;;4.63;100.00;100191.09;5202385;55;1139155;-78
2023/03/04 12:15:45;;;;;;;10.73;4.73;;;;;;;4.47;100.00;100230.41;5135257;55;1138867;-73
2023/03/04 12:21:18;;;;;;;15.90;7.27;;;;;;;3.88;100.00;100246.36;5171340;55;1138832;-79
2023/03/04 12:26:31;;;;;;;9.43;4.70;;;;;;;3.39;100.00;100250.75;5130622;55;1138975;-79
2023/03/04 12:31:45;;;;;;;8.03;4.10;;;;;;;3.04;100.00;100247.36;5121670;56;1137789;-79
2023/03/04 12:37:07;;;;;;;98.40;44.83;;;;;;;2.93;100.00;100239.66;5148104;55;1136718;-75
2023/03/04 12:42:49;;;;;;;30.40;18.80;;;;;;;2.97;100.00;100233.37;5136746;56;1141706;-84
2023/03/04 12:48:39;;;;;;;61.83;23.70;;;;;;;3.12;100.00;100228.20;5115536;56;1150428;-82
2023/03/04 12:54:13;;;;;;;47.40;15.23;;;;;;;3.23;100.00;100233.33;4929459;58;1141084;-81
2023/03/04 12:59:22;;;;;;;13.38;4.25;;;;;;;3.32;100.00;100238.09;4940574;57;1140929;-78
2023/03/04 13:04:35;;;;;;;11.23;3.73;;;;;;;3.37;100.00;100243.91;5050171;56;1138857;-81
2023/03/04 13:09:54;;;;;;;19.87;5.15;;;;;;;3.37;100.00;100247.36;5105777;55;1139011;-83
2023/03/04 13:15:13;;;;;;;61.80;32.40;;;;;;;3.46;100.00;100248.67;5165818;55;1138748;-83
2023/03/04 13:20:35;;;;;;;17.87;8.03;;;;;;;3.56;100.00;100252.48;5131698;56;1141087;-78
2023/03/04 13:25:56;;;;;;;93.80;49.67;;;;;;;3.64;100.00;100249.47;5085102;55;1138792;-82
2023/03/04 13:31:16;;;;;;;35.53;16.23;;;;;;;3.68;100.00;100250.51;5068778;55;1143003;-80
2023/03/04 13:36:34;;;;;;;22.13;12.10;;;;;;;3.74;100.00;100254.12;5130888;55;1143057;-81
2023/03/04 13:41:52;;;;;;;21.13;8.07;;;;;;;3.85;100.00;100253.06;5084764;55;1143167;-76
2023/03/04 13:47:01;;;;;;;52.93;24.73;;;;;;;3.98;100.00;100246.70;5063453;56;1139029;-74
2023/03/04 13:52:39;;;;;;;72.13;32.53;;;;;;;4.22;100.00;100252.37;5054292;56;1140961;-79
2023/03/04 13:57:52;;;;;;;11.87;5.10;;;;;;;4.41;100.00;100263.97;5103614;55;1142989;-77
2023/03/04 14:02:59;;;;;;;25.77;13.53;;;;;;;4.47;100.00;100270.16;5127912;55;1141015;-76
2023/03/04 14:08:20;;;;;;;15.88;8.48;;;;;;;4.42;100.00;100270.90;5022886;56;1141827;-76
2023/03/04 14:13:26;;;;;;;10.43;4.80;;;;;;;4.47;100.00;100268.84;5026518;56;1141016;-71
2023/03/04 14:18:33;;;;;;;12.03;5.67;;;;;;;4.78;100.00;100261.39;5179893;55;1256050;-77
2023/03/04 14:23:39;;;;;;;29.35;15.85;;;;;;;5.17;100.00;100250.36;5113501;55;1139078;-76
2023/03/04 14:28:50;;;;;;;22.73;10.77;;;;;;;5.52;100.00;100247.75;5141022;55;1142986;-74
2023/03/04 14:34:05;;;;;;;30.43;15.30;;;;;;;5.53;100.00;100248.59;5109108;55;1143038;-77
2023/03/04 14:39:09;;;;;;;9.03;5.40;;;;;;;5.43;100.00;100262.75;5117038;55;1141012;-81
2023/03/04 14:44:47;;;;;;;6.33;3.60;;;;;;;5.37;100.00;100263.57;5173324;55;1136703;-78
2023/03/04 14:49:53;;;;;;;25.53;11.50;;;;;;;5.38;100.00;100266.10;5207572;55;1136872;-76
2023/03/04 14:55:23;;;;;;;7.73;3.77;;;;;;;5.37;100.00;100264.41;5204047;55;1141300;-76
2023/03/04 15:00:33;;;;;;;6.43;4.80;;;;;;;5.40;100.00;100262.92;5141289;56;1136738;-80
2023/03/04 15:05:39;;;;;;;7.93;5.07;;;;;;;5.46;100.00;100256.48;5081909;56;1136866;-74
2023/03/04 15:11:04;;;;;;;7.70;3.00;;;;;;;5.57;100.00;100260.13;4964824;56;1136855;-79
2023/03/04 15:16:12;;;;;;;10.00;3.47;;;;;;;5.63;100.00;100268.10;5047334;56;1136855;-83
2023/03/04 15:21:31;;;;;;;14.03;6.87;;;;;;;5.68;100.00;100260.77;5034986;55;1138765;-78
2023/03/04 15:26:42;;;;;;;9.43;3.97;;;;;;;5.92;100.00;100273.73;5035537;56;1138867;-79
2023/03/04 15:31:49;;;;;;;3.25;2.52;;;;;;;7.06;91.53;100277.28;5112455;55;1146324;-76
2023/03/04 15:36:57;;;;;;;3.85;1.92;;;;;;;7.79;70.61;100273.59;5133381;56;1134873;-88
2023/03/04 15:42:02;;;;;;;49.00;28.43;;;;;;;6.94;66.15;100278.10;5112877;55;1134672;-75
2023/03/04 15:47:16;;;;;;;146.03;97.50;;;;;;;5.98;67.66;100290.40;5112432;56;1138766;-80
2023/03/04 15:52:21;;;;;;;25.13;19.67;;;;;;;5.48;74.58;100302.66;5118665;55;1140872;-79
2023/03/04 15:57:28;;;;;;;17.17;9.53;;;;;;;5.27;75.61;100304.78;5114458;55;1139029;-81
2023/03/04 16:02:34;;;;;;;6.80;4.33;;;;;;;5.68;71.99;100306.69;5013053;56;1136656;-79
2023/03/04 16:07:41;;;;;;;6.50;3.80;;;;;;;6.66;75.42;100314.09;4965537;57;1134958;-79
2023/03/04 16:12:47;;;;;;;9.07;5.13;;;;;;;6.66;69.25;100316.72;5040555;56;1134668;-71
2023/03/04 16:17:54;;;;;;;29.60;19.75;;;;;;;5.84;68.76;100331.53;5077156;56;1134990;-81
2023/03/04 16:23:01;;;;;;;55.57;31.80;;;;;;;5.18;74.64;100342.50;5092355;56;1138794;-79
2023/03/04 16:28:09;;;;;;;61.20;38.60;;;;;;;4.66;73.40;100353.78;5033864;57;1138676;-76
2023/03/04 16:33:15;;;;;;;128.20;81.17;;;;;;;4.34;75.15;100356.39;5074078;56;1138896;-74
2023/03/04 16:38:28;;;;;;;60.20;37.03;;;;;;;3.97;75.03;100357.55;5090764;55;1140867;-85
2023/03/04 16:43:34;;;;;;;27.47;17.43;;;;;;;3.64;73.21;100364.53;5122247;55;1139028;-82
2023/03/04 16:48:40;;;;;;;27.63;17.33;;;;;;;3.39;71.89;100364.45;5132091;55;1138912;-73
2023/03/04 16:54:01;;;;;;;17.33;9.87;;;;;;;3.24;72.78;100380.06;5113070;55;1138934;-78
2023/03/04 16:59:07;;;;;;;19.17;10.33;;;;;;;3.10;72.78;100387.27;5113317;55;1137006;-81
2023/03/04 17:04:13;;;;;;;34.13;20.65;;;;;;;3.00;73.98;100396.03;5179600;55;1138886;-76
2023/03/04 17:09:19;;;;;;;121.43;66.47;;;;;;;2.92;73.72;100407.75;5190447;55;1138754;-74
2023/03/04 17:14:26;;;;;;;45.20;23.12;;;;;;;2.90;78.81;100422.68;5189549;55;1140868;-74
2023/03/04 17:19:32;;;;;;;101.57;59.87;;;;;;;2.83;78.12;100434.70;5106097;55;1138948;-79
2023/03/04 17:24:38;;;;;;;57.80;34.20;;;;;;;2.73;78.43;100441.75;5121637;55;1141031;-81
2023/03/04 17:29:44;;;;;;;62.10;33.90;;;;;;;2.64;79.24;100446.92;5098546;55;1138718;-80
2023/03/04 17:34:50;;;;;;;30.00;14.20;;;;;;;2.54;78.69;100447.42;5103972;55;1139270;-73
2023/03/04 17:39:56;;;;;;;26.70;14.60;;;;;;;2.51;81.20;100456.69;5227937;55;1138680;-75
2023/03/04 17:45:02;;;;;;;25.62;13.62;;;;;;;2.51;82.50;100462.77;5138034;55;1138743;-74
2023/03/04 17:50:09;;;;;;;45.83;21.60;;;;;;;2.45;81.65;100463.02;5120703;56;1138830;-77
2023/03/04 17:55:15;;;;;;;24.77;10.80;;;;;;;2.37;81.62;100471.67;5140649;56;1138698;-76
2023/03/04 18:00:21;;;;;;;31.53;11.90;;;;;;;2.38;82.84;100483.81;5120343;56;1139174;-80
2023/03/04 18:05:27;;;;;;;52.73;21.77;;;;;;;2.40;83.53;100484.59;5120452;56;1138737;-84
2023/03/04 18:10:33;;;;;;;67.93;24.03;;;;;;;2.40;83.91;100479.38;5184361;55;1138929;-74
2023/03/04 18:15:39;;;;;;;71.33;27.00;;;;;;;2.40;84.44;100480.22;5222130;55;1138802;-76
2023/03/04 18:20:45;;;;;;;35.20;11.90;;;;;;;2.36;83.38;100484.33;5176250;55;1138844;-78
2023/03/04 18:25:51;;;;;;;24.30;8.23;;;;;;;2.26;81.53;100492.19;5133858;55;1138647;-75
2023/03/04 18:30:57;;;;;;;32.23;10.28;;;;;;;2.10;82.16;100490.24;5140849;56;1136911;-77
2023/03/04 18:36:07;;;;;;;32.78;14.13;;;;;;;2.02;83.51;100486.25;5164912;55;1138720;-80
2023/03/04 18:41:15;;;;;;;174.27;64.37;;;;;;;2.01;84.68;100494.53;5198269;55;1138871;-78
2023/03/04 18:46:46;;;;;;;87.97;34.60;;;;;;;1.96;83.81;100499.57;5217995;55;1140745;-74
2023/03/04 18:51:52;;;;;;;43.65;18.92;;;;;;;1.94;84.90;100501.39;5158624;55;1148175;-83
2023/03/04 18:57:02;;;;;;;39.30;16.17;;;;;;;1.94;85.10;100504.84;5060834;55;1145102;-83
2023/03/04 19:02:15;;;;;;;34.93;16.20;;;;;;;1.94;85.33;100506.61;5145705;55;1138891;-80
2023/03/04 19:07:22;;;;;;;46.83;20.27;;;;;;;1.86;84.98;100509.98;5127115;55;1138792;-75
2023/03/04 19:12:29;;;;;;;66.30;28.97;;;;;;;1.80;85.23;100507.19;5058626;56;1138994;-83
2023/03/04 19:17:34;;;;;;;114.33;49.50;;;;;;;1.72;85.59;100508.80;5133282;55;1138940;-81
2023/03/04 19:22:40;;;;;;;66.53;31.03;;;;;;;1.70;85.98;100514.98;5220979;55;1140971;-82
2023/03/04 19:27:46;;;;;;;34.30;16.33;;;;;;;1.65;85.80;100509.98;5122515;54;1138672;-86
2023/03/04 19:32:53;;;;;;;31.90;13.07;;;;;;;1.62;85.68;100510.09;5122840;56;1138952;-75
2023/03/04 19:38:03;;;;;;;32.53;14.63;;;;;;;1.59;85.94;100516.73;5172433;55;1138717;-86
2023/03/04 19:43:09;;;;;;;68.47;31.02;;;;;;;1.58;85.75;100518.09;5122565;56;1138892;-82
2023/03/04 19:48:15;;;;;;;97.83;40.57;;;;;;;1.52;85.89;100514.45;5113341;56;1138878;-79
2023/03/04 19:53:21;;;;;;;231.03;81.03;;;;;;;1.47;85.87;100509.88;5131279;56;1138859;-77
2023/03/04 19:58:27;;;;;;;270.47;91.77;;;;;;;1.40;86.21;100514.47;5111988;55;1141073;-81
2023/03/04 20:03:33;;;;;;;313.70;108.57;;;;;;;1.33;86.62;100519.09;5113412;56;1140963;-77
2023/03/04 20:08:39;;;;;;;279.20;91.83;;;;;;;1.28;86.77;100518.41;5072562;56;1143044;-83
2023/03/04 20:13:45;;;;;;;263.10;90.97;;;;;;;1.22;87.18;100518.64;5066065;56;1140996;-82
2023/03/04 20:18:51;;;;;;;146.20;46.07;;;;;;;1.16;87.80;100512.39;5032867;56;1140977;-80
2023/03/04 20:24:04;;;;;;;176.27;58.78;;;;;;;1.09;87.20;100515.28;5067214;56;1141187;-75
2023/03/04 20:29:06;;;;;;;286.12;88.75;;;;;;;1.03;88.25;100517.23;5022377;56;1140816;-78
2023/03/04 20:34:13;;;;;;;365.17;109.57;;;;;;;1.00;88.19;100519.95;4980703;57;1141260;-83
2023/03/04 20:39:18;;;;;;;263.10;77.83;;;;;;;0.98;88.35;100514.40;5094422;56;1142931;-75
2023/03/04 20:44:24;;;;;;;186.50;57.77;;;;;;;0.91;88.26;100509.90;5122457;56;1140949;-83
2023/03/04 20:49:30;;;;;;;107.53;37.40;;;;;;;0.87;88.54;100503.55;4980376;57;1140980;-79
2023/03/04 20:54:39;;;;;;;109.60;35.00;;;;;;;0.82;88.62;100508.92;5017147;56;1140937;-88
2023/03/04 20:59:45;;;;;;;39.80;13.47;;;;;;;0.76;88.91;100500.06;5029393;56;1141001;-81
2023/03/04 21:04:51;;;;;;;53.00;16.47;;;;;;;0.68;88.80;100505.99;5091974;56;1139198;-84
2023/03/04 21:09:57;;;;;;;45.75;14.47;;;;;;;0.62;89.21;100504.91;5113575;55;1139069;-82
2023/03/04 21:15:03;;;;;;;43.95;14.05;;;;;;;0.57;89.55;100512.05;5070638;55;1138875;-76
2023/03/04 21:20:11;;;;;;;91.50;27.50;;;;;;;0.51;89.57;100504.02;5057292;56;1139044;-77
2023/03/04 21:25:17;;;;;;;79.67;24.43;;;;;;;0.45;90.28;100495.14;5049946;56;1139404;-81
2023/03/04 21:30:23;;;;;;;108.00;29.60;;;;;;;0.40;90.79;100494.91;5037998;56;1138922;-78
2023/03/04 21:35:31;;;;;;;123.10;39.10;;;;;;;0.29;90.52;100496.15;5057016;56;1141237;-81
2023/03/04 21:40:37;;;;;;;195.17;52.30;;;;;;;0.20;90.81;100491.70;5035635;57;1141151;-79
2023/03/04 21:45:43;;;;;;;258.82;71.55;;;;;;;0.14;91.11;100486.74;5062008;55;1141130;-77
2023/03/04 21:50:48;;;;;;;243.77;71.90;;;;;;;0.11;90.24;100491.59;5125902;55;1140980;-74
2023/03/04 21:55:55;;;;;;;192.10;62.17;;;;;;;-0.07;90.42;100491.78;5102329;55;1140989;-82
2023/03/04 22:01:00;;;;;;;70.93;22.23;;;;;;;-0.07;91.17;100483.13;5102383;55;1143178;-73
2023/03/04 22:06:09;;;;;;;35.45;13.62;;;;;;;-0.18;90.50;100482.20;5125215;54;1140880;-72
2023/03/04 22:11:15;;;;;;;29.07;10.93;;;;;;;-0.37;89.93;100477.23;5112036;55;1141086;-81
2023/03/04 22:16:22;;;;;;;63.93;13.20;;;;;;;-0.57;89.66;100471.38;5197615;55;1140983;-78
2023/03/04 22:21:27;;;;;;;193.20;38.17;;;;;;;-0.63;89.99;100469.00;5160084;55;1141235;-82
2023/03/04 22:26:33;;;;;;;398.23;97.23;;;;;;;-0.66;90.34;100461.76;5060356;55;1142995;-86
2023/03/04 22:31:39;;;;;;;265.10;60.73;;;;;;;-0.66;90.69;100461.30;5046423;56;1143213;-75
2023/03/04 22:36:48;;;;;;;204.70;38.85;;;;;;;-0.58;91.70;100454.09;5110872;55;1143216;-79
2023/03/04 22:41:54;;;;;;;135.03;36.03;;;;;;;-0.48;91.72;100460.70;5098883;55;1143011;-79
2023/03/04 22:46:59;;;;;;;101.82;35.90;;;;;;;-0.45;92.04;100452.78;5042009;56;1142957;-78
2023/03/04 22:52:05;;;;;;;101.13;35.20;;;;;;;-0.43;92.12;100454.89;5041577;56;1142962;-74
2023/03/04 22:57:12;;;;;;;104.87;32.57;;;;;;;-0.46;92.19;100445.89;5061284;56;1142882;-82
2023/03/04 23:02:18;;;;;;;108.70;33.57;;;;;;;-0.46;92.27;100440.70;5041446;56;1142848;-82
2023/03/04 23:07:24;;;;;;;85.63;30.50;;;;;;;-0.42;92.50;100434.95;5049794;56;1143022;-78